Time;durP1;ratioP1;P1;durP2;ratioP2;P2;SDS_P1;SDS_P2;PMS_P1;PMS_P2;Temp;Humidity;BMP_temperature;BMP_pressure;BME280_temperature;BME280_humidity;BME280_pressure;Samples;Min_cycle;Max_cycle;Signal;HPM_P1;HPM_P2
2021/12/27 00:00:22;;;;;;;27.27;23.63;;;0.80;99.90;;;;;;5031434;28;20032;-72
2021/12/27 00:02:54;;;;;;;29.55;24.45;;;0.80;99.90;;;;;;5016722;28;20484;-72
2021/12/27 00:05:20;;;;;;;30.38;24.42;;;0.80;99.90;;;;;;5025969;28;20029;-72
2021/12/27 00:07:50;;;;;;;29.08;24.42;;;0.90;99.90;;;;;;5021925;28;20555;-72
2021/12/27 00:10:20;;;;;;;29.15;23.83;;;0.80;99.90;;;;;;5013718;28;20038;-72
2021/12/27 00:12:46;;;;;;;27.13;23.50;;;0.90;99.90;;;;;;4996922;28;20039;-72
2021/12/27 00:15:13;;;;;;;26.73;22.85;;;0.90;99.90;;;;;;5006062;28;20045;-72
2021/12/27 00:17:59;;;;;;;28.35;24.20;;;0.90;99.90;;;;;;5002906;28;20100;-72
2021/12/27 00:20:25;;;;;;;28.58;24.60;;;0.90;99.90;;;;;;5006031;28;20038;-73
2021/12/27 00:22:51;;;;;;;29.70;24.92;;;0.90;99.90;;;;;;5004552;28;20029;-73
2021/12/27 00:25:18;;;;;;;30.13;25.05;;;0.90;99.90;;;;;;4999543;28;20096;-72
2021/12/27 00:27:44;;;;;;;30.17;25.13;;;0.90;99.90;;;;;;4998891;28;20035;-72
2021/12/27 00:30:15;;;;;;;29.02;25.92;;;0.90;99.90;;;;;;5011112;28;20030;-72
2021/12/27 00:32:43;;;;;;;31.20;26.38;;;0.90;99.90;;;;;;4999421;28;20026;-73
2021/12/27 00:35:12;;;;;;;33.55;26.27;;;0.90;99.90;;;;;;5005764;28;20030;-72
2021/12/27 00:37:38;;;;;;;30.15;26.40;;;0.80;99.90;;;;;;5005949;28;20018;-72
2021/12/27 00:40:05;;;;;;;34.05;27.88;;;0.80;99.90;;;;;;5011530;28;20030;-73
2021/12/27 00:42:36;;;;;;;30.98;27.30;;;0.90;99.90;;;;;;4999750;28;20034;-72
2021/12/27 00:45:02;;;;;;;42.40;33.00;;;0.90;99.90;;;;;;5004475;28;20109;-72
2021/12/27 00:47:29;;;;;;;38.78;29.95;;;0.90;99.90;;;;;;4999056;28;20122;-72
2021/12/27 00:49:56;;;;;;;46.45;33.30;;;0.90;99.90;;;;;;5012643;28;20029;-72
2021/12/27 00:52:22;;;;;;;50.53;34.30;;;0.80;99.90;;;;;;4999157;28;20018;-73
2021/12/27 00:54:47;;;;;;;53.83;38.72;;;0.70;99.90;;;;;;5012298;28;20026;-72
2021/12/27 00:57:16;;;;;;;41.45;32.75;;;0.60;99.90;;;;;;4999206;28;20019;-73
2021/12/27 00:59:41;;;;;;;38.85;30.85;;;0.70;99.90;;;;;;5001506;28;20035;-71
2021/12/27 01:02:07;;;;;;;41.90;32.10;;;0.80;99.90;;;;;;5004888;28;20541;-71
2021/12/27 01:04:32;;;;;;;46.40;34.85;;;0.70;99.90;;;;;;5012123;28;20029;-71
2021/12/27 01:07:05;;;;;;;42.63;34.35;;;0.80;99.90;;;;;;5004236;28;20034;-71
2021/12/27 01:12:34;;;;;;;38.65;30.73;;;0.70;99.90;;;;;;5007389;28;20027;-71
2021/12/27 01:15:33;;;;;;;;;;;0.70;99.90;;;;;;4993619;28;20046;-71
2021/12/27 01:17:45;;;;;;;35.22;29.17;;;0.80;99.90;;;;;;5011688;28;19917;-71
2021/12/27 01:20:14;;;;;;;34.92;28.95;;;0.90;99.90;;;;;;4981979;28;20043;-72
2021/12/27 01:22:40;;;;;;;36.10;30.38;;;1.00;99.90;;;;;;4999875;28;20033;-70
2021/12/27 01:25:09;;;;;;;34.28;29.15;;;1.10;99.90;;;;;;4996393;28;20104;-70
2021/12/27 01:27:37;;;;;;;33.47;28.33;;;1.10;99.90;;;;;;5015995;28;20044;-70
2021/12/27 01:30:05;;;;;;;31.95;27.48;;;1.10;99.90;;;;;;4993223;28;20109;-72
2021/12/27 01:32:36;;;;;;;36.40;30.58;;;1.20;99.90;;;;;;5017150;28;20042;-72
2021/12/27 01:35:03;;;;;;;32.28;28.00;;;1.10;99.90;;;;;;5017057;28;20403;-71
2021/12/27 01:37:29;;;;;;;32.95;28.65;;;1.20;99.90;;;;;;5004046;28;20050;-71
2021/12/27 01:39:55;;;;;;;33.97;28.42;;;1.20;99.90;;;;;;5006470;28;20057;-71
2021/12/27 01:42:21;;;;;;;34.28;29.08;;;1.20;99.90;;;;;;5003867;28;20046;-71
2021/12/27 01:44:47;;;;;;;39.20;31.30;;;1.20;99.90;;;;;;5009872;28;20034;-72
2021/12/27 01:47:12;;;;;;;39.75;31.60;;;1.30;99.90;;;;;;5015725;28;20034;-72
2021/12/27 01:49:38;;;;;;;40.60;33.25;;;1.20;99.90;;;;;;5007231;28;20021;-72
2021/12/27 01:52:05;;;;;;;46.05;35.58;;;1.10;99.90;;;;;;5000586;28;20092;-72
2021/12/27 01:54:32;;;;;;;41.83;32.13;;;0.90;99.90;;;;;;5017969;28;20365;-71
2021/12/27 01:56:59;;;;;;;40.35;31.40;;;1.00;99.90;;;;;;5015555;28;20101;-72
2021/12/27 01:59:25;;;;;;;47.35;35.75;;;1.00;99.90;;;;;;5018204;28;20029;-72
2021/12/27 02:01:51;;;;;;;45.03;34.55;;;1.10;99.90;;;;;;5004257;28;20031;-73
2021/12/27 02:04:18;;;;;;;36.97;31.77;;;1.20;99.90;;;;;;5016968;28;20037;-72
2021/12/27 02:06:44;;;;;;;39.25;32.55;;;1.20;99.90;;;;;;5004995;28;20049;-72
2021/12/27 02:09:10;;;;;;;42.58;33.30;;;1.20;99.90;;;;;;5010774;28;20053;-73
2021/12/27 02:11:39;;;;;;;44.90;35.13;;;1.10;99.90;;;;;;5010209;28;20467;-72
2021/12/27 02:14:06;;;;;;;39.10;32.90;;;1.30;99.90;;;;;;5005255;28;20030;-72
2021/12/27 02:16:34;;;;;;;35.75;29.65;;;1.30;99.90;;;;;;5019287;28;20029;-72
2021/12/27 02:19:00;;;;;;;37.65;30.92;;;1.20;99.90;;;;;;5009916;28;20029;-72
2021/12/27 02:21:26;;;;;;;35.25;28.80;;;1.30;99.90;;;;;;5015263;28;20053;-72
2021/12/27 02:23:54;;;;;;;40.53;33.13;;;1.30;99.90;;;;;;5017814;28;20041;-72
2021/12/27 02:26:23;;;;;;;43.15;33.88;;;1.30;99.90;;;;;;5007513;28;20060;-72
2021/12/27 02:28:49;;;;;;;59.63;38.83;;;1.30;99.90;;;;;;5007803;28;20395;-72
2021/12/27 02:31:17;;;;;;;65.53;42.00;;;1.00;99.90;;;;;;4998166;28;20030;-71
2021/12/27 02:33:43;;;;;;;67.85;42.47;;;0.90;99.90;;;;;;5003317;28;20030;-71
2021/12/27 02:36:11;;;;;;;54.13;40.00;;;0.80;99.90;;;;;;5017803;28;20053;-72
2021/12/27 02:38:41;;;;;;;57.50;41.05;;;0.80;99.90;;;;;;5003528;28;20108;-72
2021/12/27 02:41:09;;;;;;;53.42;38.67;;;0.80;99.90;;;;;;4994061;28;20030;-71
2021/12/27 02:43:41;;;;;;;54.10;40.92;;;0.80;99.90;;;;;;4995144;28;20034;-71
2021/12/27 02:46:10;;;;;;;65.93;43.17;;;1.00;99.90;;;;;;4991053;28;20089;-70
2021/12/27 02:48:45;;;;;;;55.25;41.42;;;0.80;99.90;;;;;;4993726;28;20073;-72
2021/12/27 02:51:14;;;;;;;58.30;40.33;;;0.80;99.90;;;;;;5008158;28;20026;-72
2021/12/27 02:53:44;;;;;;;69.32;45.13;;;0.80;99.90;;;;;;4994897;28;20038;-72
2021/12/27 02:56:17;;;;;;;63.83;43.80;;;0.80;99.90;;;;;;4998264;28;20112;-73
2021/12/27 02:58:43;;;;;;;77.53;49.20;;;0.80;99.90;;;;;;4999655;28;20022;-72
2021/12/27 03:01:15;;;;;;;66.78;45.20;;;0.80;99.90;;;;;;4994839;28;20379;-72
2021/12/27 03:03:42;;;;;;;95.18;54.58;;;0.80;99.90;;;;;;5000695;28;20049;-72
2021/12/27 03:06:08;;;;;;;81.95;49.00;;;0.80;99.90;;;;;;5005593;28;20041;-73
2021/12/27 03:08:39;;;;;;;84.55;52.75;;;0.80;99.90;;;;;;5009284;28;20368;-71
2021/12/27 03:11:07;;;;;;;54.53;40.08;;;0.80;99.90;;;;;;5012469;28;20025;-71
2021/12/27 03:13:36;;;;;;;84.20;52.40;;;0.90;99.90;;;;;;5009382;28;20042;-71
2021/12/27 03:16:13;;;;;;;84.90;52.42;;;0.90;99.90;;;;;;4992404;28;20046;-72
2021/12/27 03:18:42;;;;;;;105.85;58.72;;;1.00;99.90;;;;;;5000350;28;20021;-72
2021/12/27 03:21:09;;;;;;;88.47;54.97;;;1.00;99.90;;;;;;5014078;28;20079;-71
2021/12/27 03:23:36;;;;;;;100.07;59.47;;;1.00;99.90;;;;;;5015276;28;20113;-71
2021/12/27 03:26:03;;;;;;;128.15;67.43;;;0.90;99.90;;;;;;5015879;28;20084;-72
2021/12/27 03:28:29;;;;;;;134.10;69.72;;;0.90;99.90;;;;;;5009917;28;20030;-71
2021/12/27 03:30:57;;;;;;;132.32;67.75;;;0.80;99.90;;;;;;5010792;28;20034;-71
2021/12/27 03:33:23;;;;;;;128.82;64.93;;;1.00;99.90;;;;;;4993624;28;20488;-72
2021/12/27 03:36:03;;;;;;;111.65;59.30;;;1.00;99.90;;;;;;5012040;28;20025;-72
2021/12/27 03:38:33;;;;;;;87.90;52.83;;;0.90;99.90;;;;;;4993974;28;20142;-72
2021/12/27 03:40:59;;;;;;;135.23;65.55;;;0.90;99.90;;;;;;5009529;28;20506;-72
2021/12/27 03:43:28;;;;;;;120.45;60.55;;;0.90;99.90;;;;;;5013060;28;20080;-72
2021/12/27 03:45:58;;;;;;;76.28;48.45;;;0.90;99.90;;;;;;5003430;28;20053;-73
2021/12/27 03:48:24;;;;;;;107.97;58.92;;;1.00;99.90;;;;;;5003789;28;20463;-73
2021/12/27 03:50:52;;;;;;;114.28;60.17;;;1.00;99.90;;;;;;5017209;28;20061;-73
2021/12/27 03:53:22;;;;;;;79.68;49.13;;;0.90;99.90;;;;;;5010833;28;20088;-72
2021/12/27 03:55:51;;;;;;;66.28;46.28;;;0.90;99.90;;;;;;5012932;28;20480;-73
2021/12/27 03:58:45;;;;;;;76.30;47.63;;;0.90;99.90;;;;;;5001947;28;20365;-71
2021/12/27 04:01:15;;;;;;;111.57;58.85;;;1.00;99.90;;;;;;5002582;28;20387;-72
2021/12/27 04:03:44;;;;;;;135.35;64.88;;;1.10;99.90;;;;;;5012656;28;20496;-72
2021/12/27 04:06:11;;;;;;;156.73;68.68;;;1.00;99.90;;;;;;5046307;22;20195;-75
2021/12/27 04:08:39;;;;;;;194.63;76.10;;;1.00;99.90;;;;;;5032690;28;20032;-75
2021/12/27 04:11:06;;;;;;;89.47;51.92;;;0.90;99.90;;;;;;5042857;28;20029;-74
2021/12/27 04:13:34;;;;;;;102.50;56.40;;;0.90;99.90;;;;;;5025937;28;20540;-74
2021/12/27 04:16:02;;;;;;;66.97;45.40;;;0.90;99.90;;;;;;5025023;28;20036;-74
2021/12/27 04:18:30;;;;;;;69.78;47.75;;;1.00;99.90;;;;;;5030863;28;20018;-74
2021/12/27 04:20:58;;;;;;;141.10;64.43;;;1.10;99.90;;;;;;5006533;28;20033;-74
2021/12/27 04:23:27;;;;;;;111.38;56.80;;;1.10;99.90;;;;;;5032283;28;20045;-74
2021/12/27 04:25:53;;;;;;;117.68;60.33;;;1.10;99.90;;;;;;5018225;28;20404;-74
2021/12/27 04:28:19;;;;;;;100.07;55.45;;;1.10;99.90;;;;;;5020823;28;20577;-74
2021/12/27 04:30:45;;;;;;;111.65;58.30;;;1.00;99.90;;;;;;5006484;28;20037;-74
2021/12/27 04:33:11;;;;;;;124.85;60.72;;;1.00;99.90;;;;;;5013992;28;20414;-75
2021/12/27 04:35:39;;;;;;;125.13;62.10;;;1.00;99.90;;;;;;5008753;28;20523;-74
2021/12/27 04:38:10;;;;;;;132.02;62.75;;;1.00;99.90;;;;;;5030632;28;20097;-75
2021/12/27 04:40:39;;;;;;;80.55;49.60;;;1.00;99.90;;;;;;5001661;28;20038;-74
2021/12/27 04:43:10;;;;;;;79.15;50.85;;;1.00;99.90;;;;;;5031367;28;20483;-76
2021/12/27 04:45:42;;;;;;;82.35;51.80;;;1.00;99.90;;;;;;5033609;28;20084;-78
2021/12/27 04:48:08;;;;;;;97.57;55.63;;;1.00;99.90;;;;;;5012497;28;20034;-75
2021/12/27 04:50:34;;;;;;;93.85;55.55;;;1.00;99.90;;;;;;5005128;28;20033;-77
2021/12/27 04:53:01;;;;;;;101.90;55.80;;;1.00;99.90;;;;;;5020044;28;20038;-75
2021/12/27 04:55:27;;;;;;;114.18;59.35;;;1.00;99.90;;;;;;5013721;28;20113;-75
2021/12/27 04:57:53;;;;;;;114.07;60.55;;;1.10;99.90;;;;;;5021657;28;20100;-75
2021/12/27 05:00:19;;;;;;;135.68;70.72;;;1.10;99.90;;;;;;5029982;28;20025;-76
2021/12/27 05:02:45;;;;;;;83.82;54.67;;;1.00;99.90;;;;;;4992191;28;20032;-74
2021/12/27 05:05:14;;;;;;;95.88;55.35;;;1.10;99.90;;;;;;5026874;28;20029;-76
2021/12/27 05:07:44;;;;;;;78.80;51.83;;;1.10;99.90;;;;;;5036323;28;20379;-77
2021/12/27 05:10:12;;;;;;;76.50;50.05;;;1.10;99.90;;;;;;5032690;28;20032;-77
2021/12/27 05:12:39;;;;;;;74.75;49.13;;;1.20;99.90;;;;;;5014956;28;20488;-76
2021/12/27 05:15:06;;;;;;;84.47;53.03;;;1.20;99.90;;;;;;5029215;28;20550;-77
2021/12/27 05:17:31;;;;;;;103.10;59.53;;;1.10;99.90;;;;;;5006116;28;20028;-75
2021/12/27 05:19:59;;;;;;;76.32;51.47;;;1.10;99.90;;;;;;5018915;28;20442;-75
2021/12/27 05:22:25;;;;;;;83.13;51.72;;;1.10;99.90;;;;;;5018938;28;20049;-75
2021/12/27 05:24:51;;;;;;;107.45;59.72;;;1.10;99.90;;;;;;5027564;28;20057;-74
2021/12/27 05:27:18;;;;;;;88.30;53.08;;;1.20;99.90;;;;;;5006152;28;20505;-75
2021/12/27 05:29:45;;;;;;;54.58;41.15;;;1.10;99.90;;;;;;5021955;28;20479;-75
2021/12/27 05:32:11;;;;;;;56.60;40.55;;;1.20;99.90;;;;;;5031663;28;20095;-74
2021/12/27 05:34:37;;;;;;;122.85;62.35;;;1.30;99.90;;;;;;5031198;28;20033;-74
2021/12/27 05:37:04;;;;;;;69.10;46.72;;;1.20;99.90;;;;;;5031299;28;20112;-74
2021/12/27 05:39:30;;;;;;;128.13;64.53;;;1.20;99.90;;;;;;5006218;28;20036;-75
2021/12/27 05:41:56;;;;;;;66.47;45.15;;;1.20;99.90;;;;;;5022092;28;20022;-74
2021/12/27 05:44:21;;;;;;;61.15;44.10;;;1.30;99.90;;;;;;5031559;28;20399;-75
2021/12/27 05:46:47;;;;;;;95.47;53.17;;;1.30;99.90;;;;;;5031246;28;20014;-75
2021/12/27 05:49:14;;;;;;;101.47;56.47;;;1.30;99.90;;;;;;5024552;28;20113;-75
2021/12/27 05:51:41;;;;;;;99.10;54.45;;;1.30;99.90;;;;;;5012627;28;20029;-74
2021/12/27 05:54:07;;;;;;;108.18;56.47;;;1.30;99.90;;;;;;5013195;28;20501;-75
2021/12/27 05:56:32;;;;;;;97.68;54.85;;;1.20;99.90;;;;;;5023780;28;20033;-75
2021/12/27 05:58:58;;;;;;;89.38;51.70;;;1.20;99.90;;;;;;5027885;28;20029;-77
2021/12/27 06:01:24;;;;;;;88.13;51.28;;;1.20;99.90;;;;;;5013514;28;20029;-76
2021/12/27 06:03:50;;;;;;;85.60;49.83;;;1.30;99.90;;;;;;5031211;28;20034;-78
2021/12/27 06:06:16;;;;;;;79.13;47.95;;;1.20;99.90;;;;;;5013208;28;20044;-77
2021/12/27 06:08:41;;;;;;;84.32;49.65;;;1.20;99.90;;;;;;5031158;28;20038;-76
2021/12/27 06:11:07;;;;;;;120.35;60.33;;;1.30;99.90;;;;;;5030875;28;20022;-76
2021/12/27 06:13:33;;;;;;;82.45;51.72;;;1.30;99.90;;;;;;5001838;28;20030;-77
2021/12/27 06:15:58;;;;;;;134.60;61.20;;;1.20;99.90;;;;;;5035086;28;20507;-77
2021/12/27 06:18:24;;;;;;;89.53;51.13;;;1.20;99.90;;;;;;5015288;28;20045;-75
2021/12/27 06:20:50;;;;;;;65.97;43.17;;;1.20;99.90;;;;;;5023987;28;20113;-75
2021/12/27 06:23:15;;;;;;;66.18;45.35;;;1.30;99.90;;;;;;5034773;28;20025;-75
2021/12/27 06:25:43;;;;;;;60.97;42.33;;;1.30;99.90;;;;;;5007810;28;20076;-75
2021/12/27 06:28:09;;;;;;;82.47;49.00;;;1.30;99.90;;;;;;5014582;28;20507;-75
2021/12/27 06:30:35;;;;;;;131.95;62.65;;;1.30;99.90;;;;;;5016723;28;20034;-75
2021/12/27 06:33:01;;;;;;;99.47;54.75;;;1.30;99.90;;;;;;5034458;28;20388;-75
2021/12/27 06:35:26;;;;;;;113.00;58.45;;;1.30;99.90;;;;;;5033896;28;20026;-76
2021/12/27 06:37:52;;;;;;;75.53;46.65;;;1.30;99.90;;;;;;5013820;28;20021;-76
2021/12/27 06:40:18;;;;;;;110.30;56.13;;;1.40;99.90;;;;;;5023439;28;20493;-75
2021/12/27 06:42:44;;;;;;;61.53;42.65;;;1.30;99.90;;;;;;5034280;28;20033;-76
2021/12/27 06:45:10;;;;;;;80.03;47.97;;;1.30;99.90;;;;;;5016228;28;20032;-74
2021/12/27 06:47:36;;;;;;;63.40;42.42;;;1.30;99.90;;;;;;5035827;28;20021;-75
2021/12/27 06:50:04;;;;;;;100.60;52.13;;;1.40;99.90;;;;;;5031913;28;20022;-78
2021/12/27 06:52:29;;;;;;;85.45;48.95;;;1.40;99.90;;;;;;5028209;28;20475;-77
2021/12/27 06:54:55;;;;;;;122.47;60.10;;;1.40;99.90;;;;;;5025815;28;20022;-77
2021/12/27 06:57:20;;;;;;;71.53;45.58;;;1.30;99.90;;;;;;5008188;28;20462;-77
2021/12/27 06:59:46;;;;;;;89.10;50.40;;;1.30;99.90;;;;;;5007586;28;20026;-78
2021/12/27 07:02:13;;;;;;;140.10;65.32;;;1.40;99.90;;;;;;5029651;28;20038;-79
2021/12/27 07:04:38;;;;;;;125.32;66.13;;;1.30;99.90;;;;;;5009505;28;20025;-79
2021/12/27 07:07:04;;;;;;;136.77;77.40;;;1.30;99.90;;;;;;5005373;28;20044;-80
2021/12/27 07:09:30;;;;;;;138.35;107.30;;;1.30;99.90;;;;;;5036492;28;20033;-78
2021/12/27 07:11:56;;;;;;;87.18;54.28;;;1.30;99.90;;;;;;5023142;28;20033;-78
2021/12/27 07:14:21;;;;;;;63.20;45.33;;;1.30;99.90;;;;;;5008988;28;20030;-78
2021/12/27 07:16:47;;;;;;;64.30;43.58;;;1.40;99.90;;;;;;5029918;28;20065;-79
2021/12/27 07:19:12;;;;;;;50.25;38.13;;;1.40;99.90;;;;;;5017044;28;20026;-79
2021/12/27 07:21:38;;;;;;;72.25;54.03;;;1.50;99.90;;;;;;5015063;28;20022;-79
2021/12/27 07:24:04;;;;;;;65.80;49.55;;;1.50;99.90;;;;;;5008887;28;20024;-79
2021/12/27 07:26:30;;;;;;;75.20;50.85;;;1.50;99.90;;;;;;5012355;28;20030;-78
2021/12/27 07:28:56;;;;;;;52.67;40.28;;;1.50;99.90;;;;;;5008820;28;20026;-79
2021/12/27 07:31:22;;;;;;;58.90;43.92;;;1.50;99.90;;;;;;5035685;28;20036;-79
2021/12/27 07:33:48;;;;;;;57.58;44.13;;;1.50;99.90;;;;;;5025595;28;20057;-79
2021/12/27 07:36:15;;;;;;;48.95;38.92;;;1.60;99.90;;;;;;5029340;28;20026;-79
2021/12/27 07:38:42;;;;;;;47.70;37.03;;;1.60;99.90;;;;;;5026071;28;20033;-78
2021/12/27 07:41:10;;;;;;;59.50;42.35;;;1.70;99.90;;;;;;5005707;28;20025;-77
2021/12/27 07:43:36;;;;;;;50.78;37.92;;;1.70;99.90;;;;;;5022582;28;20030;-77
2021/12/27 07:46:02;;;;;;;65.20;45.35;;;1.70;99.90;;;;;;5016462;28;20029;-77
2021/12/27 07:48:28;;;;;;;52.85;38.42;;;1.70;99.90;;;;;;5022538;28;20080;-77
2021/12/27 07:50:54;;;;;;;45.25;35.10;;;1.60;99.90;;;;;;4989365;28;20025;-77
2021/12/27 07:53:19;;;;;;;71.78;46.47;;;1.60;99.90;;;;;;5006134;28;20450;-77
2021/12/27 07:55:45;;;;;;;63.22;42.83;;;1.50;99.90;;;;;;5011603;28;20513;-77
2021/12/27 07:58:11;;;;;;;50.10;37.20;;;1.50;99.90;;;;;;5013511;28;20026;-79
2021/12/27 08:00:37;;;;;;;57.38;39.35;;;1.60;99.90;;;;;;5008132;28;20490;-78
2021/12/27 08:03:02;;;;;;;47.70;34.97;;;1.70;99.90;;;;;;5031516;28;20034;-76
2021/12/27 08:05:28;;;;;;;54.60;39.42;;;1.60;99.90;;;;;;5026824;28;20091;-75
2021/12/27 08:07:54;;;;;;;50.00;37.22;;;1.70;99.90;;;;;;5022701;28;20522;-75
2021/12/27 08:10:19;;;;;;;47.08;36.05;;;1.70;99.90;;;;;;5016049;28;20061;-75
2021/12/27 08:12:45;;;;;;;42.33;33.45;;;1.80;99.90;;;;;;4995972;28;20028;-79
2021/12/27 08:15:12;;;;;;;43.50;34.25;;;2.00;99.90;;;;;;5019244;28;20104;-76
2021/12/27 08:17:39;;;;;;;41.08;32.42;;;2.10;99.90;;;;;;5022872;28;20022;-75
2021/12/27 08:20:06;;;;;;;40.88;30.70;;;2.10;99.90;;;;;;5008343;28;20030;-74
2021/12/27 08:22:32;;;;;;;42.13;32.13;;;2.10;99.90;;;;;;5022729;28;20017;-75
2021/12/27 08:24:58;;;;;;;40.90;32.45;;;2.20;99.90;;;;;;5001267;28;20083;-75
2021/12/27 08:27:25;;;;;;;36.80;29.90;;;2.20;99.90;;;;;;5015489;28;20038;-74
2021/12/27 08:29:51;;;;;;;45.55;36.10;;;2.30;99.90;;;;;;4998536;28;20036;-75
2021/12/27 08:32:17;;;;;;;42.25;33.33;;;2.30;99.90;;;;;;5021574;28;20026;-75
2021/12/27 08:34:43;;;;;;;38.38;31.95;;;2.30;99.90;;;;;;4999826;28;20080;-75
2021/12/27 08:37:09;;;;;;;42.95;30.40;;;2.30;99.90;;;;;;4993926;28;20051;-75
2021/12/27 08:39:35;;;;;;;41.88;32.30;;;2.40;99.90;;;;;;4994909;28;20025;-75
2021/12/27 08:42:03;;;;;;;40.50;32.20;;;2.40;99.90;;;;;;5022462;28;20033;-75
2021/12/27 08:44:29;;;;;;;45.90;33.67;;;2.50;99.90;;;;;;5010587;28;20026;-75
2021/12/27 08:46:54;;;;;;;43.30;31.20;;;2.40;99.90;;;;;;5004785;28;20494;-75
2021/12/27 08:49:20;;;;;;;37.67;29.95;;;2.40;99.90;;;;;;4997369;28;20029;-76
2021/12/27 08:51:46;;;;;;;37.80;29.42;;;2.50;99.90;;;;;;5012750;28;20041;-76
2021/12/27 08:54:11;;;;;;;37.22;29.23;;;2.50;99.90;;;;;;5022029;28;20037;-75
2021/12/27 08:56:38;;;;;;;36.80;27.88;;;2.60;99.90;;;;;;5021070;28;20379;-75
2021/12/27 08:59:04;;;;;;;38.60;28.98;;;2.50;99.90;;;;;;5003300;28;20029;-75
2021/12/27 09:01:30;;;;;;;41.75;30.33;;;2.60;99.90;;;;;;5003446;28;20033;-75
2021/12/27 09:03:56;;;;;;;39.20;29.65;;;2.70;99.90;;;;;;4998527;28;20030;-74
2021/12/27 09:06:22;;;;;;;37.05;28.48;;;2.60;99.90;;;;;;5031713;28;20510;-75
2021/12/27 09:08:47;;;;;;;38.63;29.63;;;2.60;99.90;;;;;;5028117;28;20032;-75
2021/12/27 09:11:13;;;;;;;40.22;30.23;;;2.60;99.90;;;;;;4995900;28;20080;-75
2021/12/27 09:13:39;;;;;;;40.83;31.08;;;2.70;99.90;;;;;;5018643;28;20084;-75
2021/12/27 09:16:05;;;;;;;37.72;28.17;;;2.70;99.90;;;;;;5022188;28;20029;-75
2021/12/27 09:18:33;;;;;;;37.03;28.45;;;2.70;99.90;;;;;;5010042;28;20021;-76
2021/12/27 09:21:00;;;;;;;37.30;28.35;;;2.80;99.90;;;;;;5015760;28;20465;-76
2021/12/27 09:23:25;;;;;;;36.30;28.73;;;2.80;99.90;;;;;;5011594;28;20399;-76
2021/12/27 09:25:51;;;;;;;36.50;28.13;;;2.80;99.90;;;;;;5004279;28;20033;-76
2021/12/27 09:28:17;;;;;;;37.65;28.33;;;2.80;99.90;;;;;;5025336;28;20110;-76
2021/12/27 09:30:42;;;;;;;35.03;27.38;;;2.80;99.90;;;;;;4999836;28;20030;-76
2021/12/27 09:33:08;;;;;;;36.03;28.15;;;3.00;99.90;;;;;;5023617;28;20407;-76
2021/12/27 09:35:34;;;;;;;37.08;27.33;;;2.90;99.90;;;;;;5023666;28;20021;-76
2021/12/27 09:38:00;;;;;;;35.88;27.67;;;2.80;99.90;;;;;;5014474;28;20018;-76
2021/12/27 09:40:26;;;;;;;34.15;26.80;;;2.90;99.90;;;;;;5018428;28;20021;-76
2021/12/27 09:42:52;;;;;;;38.63;28.98;;;2.90;99.90;;;;;;4997840;28;20048;-76
2021/12/27 09:45:19;;;;;;;35.65;27.77;;;3.00;99.90;;;;;;5031624;28;20017;-77
2021/12/27 09:47:47;;;;;;;31.17;25.98;;;3.00;99.90;;;;;;4998532;28;20084;-76
2021/12/27 09:50:21;;;;;;;33.55;26.63;;;3.10;99.90;;;;;;5015465;28;20029;-76
2021/12/27 09:52:47;;;;;;;30.75;24.65;;;3.00;99.90;;;;;;5017372;28;20390;-76
2021/12/27 09:55:12;;;;;;;35.13;26.85;;;3.10;99.90;;;;;;5025144;28;20021;-75
2021/12/27 09:57:38;;;;;;;31.35;25.02;;;3.00;99.90;;;;;;5005668;28;20022;-75
2021/12/27 10:00:05;;;;;;;32.75;25.63;;;3.10;99.90;;;;;;5016075;28;20054;-75
2021/12/27 10:02:34;;;;;;;33.78;26.35;;;3.10;99.90;;;;;;5003344;28;20044;-75
2021/12/27 10:05:00;;;;;;;30.83;25.00;;;3.10;99.90;;;;;;5028795;28;20025;-77
2021/12/27 10:07:27;;;;;;;31.90;25.77;;;3.10;99.90;;;;;;5010977;28;20562;-76
2021/12/27 10:09:59;;;;;;;33.85;26.30;;;3.10;99.90;;;;;;5021918;28;20030;-76
2021/12/27 10:12:26;;;;;;;35.28;26.42;;;3.10;99.90;;;;;;5029225;28;20018;-76
2021/12/27 10:14:59;;;;;;;31.23;24.90;;;3.10;99.90;;;;;;5002046;28;20117;-76
2021/12/27 10:17:29;;;;;;;31.27;25.58;;;3.10;99.90;;;;;;5025380;28;20093;-76
2021/12/27 10:19:55;;;;;;;34.90;26.13;;;3.10;99.90;;;;;;5003916;28;20028;-76
2021/12/27 10:22:20;;;;;;;33.95;26.17;;;3.00;99.90;;;;;;5025023;28;20033;-76
2021/12/27 10:24:50;;;;;;;34.22;26.65;;;3.00;99.90;;;;;;5021165;28;20033;-75
2021/12/27 10:27:18;;;;;;;36.20;27.05;;;3.00;99.90;;;;;;5003617;28;20041;-75
2021/12/27 10:29:43;;;;;;;31.20;24.38;;;3.10;99.90;;;;;;5030241;28;20029;-77
2021/12/27 10:32:16;;;;;;;32.13;26.02;;;3.00;99.90;;;;;;5015952;28;20472;-76
2021/12/27 10:34:43;;;;;;;33.05;25.90;;;3.10;99.90;;;;;;5019290;28;20025;-76
2021/12/27 10:37:14;;;;;;;31.00;25.73;;;3.10;99.90;;;;;;5016412;28;20079;-76
2021/12/27 10:39:49;;;;;;;32.03;25.75;;;3.20;99.90;;;;;;5016638;28;20071;-76
2021/12/27 10:42:25;;;;;;;35.08;26.55;;;3.30;99.90;;;;;;5032130;28;20569;-76
2021/12/27 10:44:54;;;;;;;33.40;26.40;;;3.20;99.90;;;;;;5022772;28;20060;-76
2021/12/27 10:47:27;;;;;;;32.05;25.05;;;3.20;99.90;;;;;;5034325;28;20017;-76
2021/12/27 10:49:54;;;;;;;31.77;25.38;;;3.10;99.90;;;;;;5016333;28;20033;-77
2021/12/27 10:52:20;;;;;;;31.50;26.65;;;3.00;99.90;;;;;;5028715;28;20040;-76
2021/12/27 10:54:46;;;;;;;32.75;25.50;;;3.10;99.90;;;;;;4998061;28;20026;-77
2021/12/27 10:57:12;;;;;;;34.90;27.00;;;3.20;99.90;;;;;;5010031;28;20029;-77
2021/12/27 10:59:38;;;;;;;34.33;26.90;;;3.30;99.90;;;;;;5012216;28;20410;-76
2021/12/27 11:02:13;;;;;;;36.38;27.23;;;3.30;99.90;;;;;;5021085;28;20025;-77
2021/12/27 11:04:40;;;;;;;36.97;29.08;;;3.30;99.90;;;;;;5007737;28;20503;-77
2021/12/27 11:07:06;;;;;;;33.25;26.08;;;3.30;99.90;;;;;;5018714;28;20045;-78
2021/12/27 11:09:32;;;;;;;33.80;26.58;;;3.10;99.90;;;;;;5027749;28;20120;-77
2021/12/27 11:11:58;;;;;;;33.90;26.67;;;3.20;99.90;;;;;;5007987;28;20026;-78
2021/12/27 11:14:24;;;;;;;32.13;26.10;;;3.40;99.90;;;;;;5018676;28;20077;-77
2021/12/27 11:16:50;;;;;;;35.58;26.88;;;3.40;99.90;;;;;;5025695;28;20030;-78
2021/12/27 11:19:15;;;;;;;32.35;26.65;;;3.60;99.90;;;;;;5005810;28;20026;-77
2021/12/27 11:21:42;;;;;;;32.63;26.25;;;3.70;99.90;;;;;;5005274;28;20033;-78
2021/12/27 11:24:08;;;;;;;32.55;25.70;;;3.80;99.90;;;;;;5013940;28;20033;-77
2021/12/27 11:26:36;;;;;;;32.28;25.52;;;3.90;99.90;;;;;;5016111;28;20479;-77
2021/12/27 11:29:10;;;;;;;31.65;25.52;;;3.90;99.90;;;;;;5007379;28;20554;-77
2021/12/27 11:31:38;;;;;;;33.28;25.02;;;3.90;99.90;;;;;;5024559;28;20056;-78
2021/12/27 11:34:06;;;;;;;29.13;24.42;;;3.70;99.90;;;;;;5015572;28;20128;-76
2021/12/27 11:36:38;;;;;;;29.95;23.73;;;3.80;99.90;;;;;;5020916;28;20442;-77
2021/12/27 11:39:37;;;;;;;32.05;25.10;;;3.60;99.90;;;;;;5022245;28;20025;-77
2021/12/27 11:42:09;;;;;;;32.88;25.33;;;3.90;99.90;;;;;;4973160;28;20096;-77
2021/12/27 11:44:49;;;;;;;35.15;26.70;;;3.80;99.90;;;;;;5030191;28;20028;-77
2021/12/27 11:47:29;;;;;;;33.97;26.73;;;3.70;99.90;;;;;;5025819;28;20028;-77
2021/12/27 11:49:59;;;;;;;35.65;28.23;;;3.70;99.90;;;;;;5013748;28;20073;-77
2021/12/27 11:52:31;;;;;;;34.22;27.38;;;3.60;99.90;;;;;;5013349;28;20029;-77
2021/12/27 11:55:03;;;;;;;32.83;26.75;;;3.70;99.90;;;;;;5005911;28;20030;-77
2021/12/27 11:57:52;;;;;;;33.00;26.33;;;3.70;99.90;;;;;;5028316;28;20511;-76
2021/12/27 12:00:18;;;;;;;34.72;27.05;;;3.60;99.90;;;;;;5029017;28;20112;-77
2021/12/27 12:02:50;;;;;;;33.38;26.30;;;3.60;99.90;;;;;;5017156;28;20399;-77
2021/12/27 12:05:44;;;;;;;32.38;26.10;;;3.50;99.90;;;;;;5001673;28;20056;-77
2021/12/27 12:08:13;;;;;;;35.90;27.27;;;3.40;99.90;;;;;;5019279;28;20033;-76
2021/12/27 12:10:59;;;;;;;36.22;26.38;;;3.50;99.90;;;;;;5015267;28;20046;-78
2021/12/27 12:13:36;;;;;;;35.47;26.90;;;3.50;99.90;;;;;;4997867;28;20029;-77
2021/12/27 12:16:08;;;;;;;34.63;26.60;;;3.40;99.90;;;;;;5032442;28;20024;-75
2021/12/27 12:18:37;;;;;;;33.85;26.67;;;3.40;99.90;;;;;;5031724;28;20068;-76
2021/12/27 12:21:03;;;;;;;33.70;26.27;;;3.40;99.90;;;;;;5004149;28;20056;-77
2021/12/27 12:23:33;;;;;;;35.85;27.48;;;3.50;99.90;;;;;;5018919;28;20036;-77
2021/12/27 12:26:02;;;;;;;32.50;25.60;;;3.50;99.90;;;;;;4995284;28;20503;-77
2021/12/27 12:28:29;;;;;;;33.83;26.13;;;3.70;99.90;;;;;;5002789;28;20029;-77
2021/12/27 12:30:55;;;;;;;33.05;26.30;;;3.60;99.90;;;;;;5020685;28;20046;-76
2021/12/27 12:33:27;;;;;;;33.15;26.00;;;3.60;99.90;;;;;;5016644;28;20034;-77
2021/12/27 12:35:59;;;;;;;30.65;23.95;;;3.80;99.90;;;;;;5025441;28;20108;-77
2021/12/27 12:38:28;;;;;;;31.25;25.70;;;3.80;99.90;;;;;;5006209;28;20017;-77
2021/12/27 12:41:05;;;;;;;31.73;25.48;;;3.90;99.90;;;;;;5015695;28;20480;-75